createdAt,value
2023-01-12T00:00:33.453Z,99699.13
2023-01-12T00:01:38.416Z,99694.06
2023-01-12T00:02:40.694Z,99695.31
2023-01-12T00:03:42.887Z,99691.06
2023-01-12T00:04:45.096Z,99691.84
2023-01-12T00:05:47.252Z,99684.84
2023-01-12T00:06:49.474Z,99679.56
2023-01-12T00:07:51.643Z,99676.91
2023-01-12T00:08:54.324Z,99685.53
2023-01-12T00:09:56.488Z,99676.00
2023-01-12T00:10:58.700Z,99684.69
2023-01-12T00:12:04.419Z,99682.19
2023-01-12T00:13:06.635Z,99688.09
2023-01-12T00:14:09.336Z,99684.22
2023-01-12T00:15:11.564Z,99687.94
2023-01-12T00:16:34.842Z,99687.97
2023-01-12T00:17:37.644Z,99686.13
2023-01-12T00:18:39.877Z,99673.19
2023-01-12T00:19:42.100Z,99682.81
2023-01-12T00:20:48.252Z,99684.69
2023-01-12T00:22:04.277Z,99669.00
2023-01-12T00:23:06.686Z,99682.03
2023-01-12T00:24:10.405Z,99679.28
2023-01-12T00:25:12.679Z,99687.91
2023-01-12T00:26:14.877Z,99679.03
2023-01-12T00:27:20.041Z,99680.47
2023-01-12T00:28:22.910Z,99677.97
2023-01-12T00:29:26.278Z,99677.22
2023-01-12T00:30:28.528Z,99679.94
2023-01-12T00:31:30.762Z,99687.72
2023-01-12T00:32:32.998Z,99668.63
2023-01-12T00:33:38.920Z,99680.75
2023-01-12T00:34:41.461Z,99662.44
2023-01-12T00:35:43.652Z,99666.94
2023-01-12T00:36:47.066Z,99668.34
2023-01-12T00:37:49.249Z,99659.75
2023-01-12T00:38:51.520Z,99662.19
2023-01-12T00:40:01.809Z,99662.31
2023-01-12T00:41:08.813Z,99664.84
2023-01-12T00:42:31.394Z,99666.66
2023-01-12T00:43:52.508Z,99670.41
2023-01-12T00:45:13.222Z,99662.63
2023-01-12T00:46:15.487Z,99661.75
2023-01-12T00:47:18.584Z,99657.34
2023-01-12T00:48:20.835Z,99655.53
2023-01-12T00:49:23.080Z,99657.47
2023-01-12T00:50:25.347Z,99651.94
2023-01-12T00:51:27.700Z,99656.59
2023-01-12T00:52:31.347Z,99655.69
2023-01-12T00:53:34.056Z,99645.84
2023-01-12T00:54:36.431Z,99653.81
2023-01-12T00:55:38.664Z,99661.81
2023-01-12T00:56:40.848Z,99655.88
2023-01-12T01:04:24.029Z,99652.69
2023-01-12T01:05:26.287Z,99649.34
2023-01-12T01:06:28.821Z,99650.88
2023-01-12T01:07:31.079Z,99642.94
2023-01-12T01:08:36.675Z,99647.25
2023-01-12T01:09:38.973Z,99644.75
2023-01-12T01:10:45.604Z,99650.78
2023-01-12T01:11:47.769Z,99642.97
2023-01-12T01:12:49.990Z,99648.31
2023-01-12T01:13:54.797Z,99656.16
2023-01-12T01:14:56.999Z,99660.50
2023-01-12T01:16:03.804Z,99661.50
2023-01-12T01:17:06.179Z,99664.50
2023-01-12T01:18:08.384Z,99668.09
2023-01-12T01:19:11.193Z,99668.19
2023-01-12T01:20:13.459Z,99667.44
2023-01-12T01:21:15.663Z,99669.28
2023-01-12T01:22:17.883Z,99671.00
2023-01-12T01:23:20.389Z,99675.38
2023-01-12T01:24:22.695Z,99676.28
2023-01-12T01:25:24.988Z,99671.13
2023-01-12T01:26:27.696Z,99673.75
2023-01-12T01:27:29.873Z,99663.44
2023-01-12T01:28:32.865Z,99664.13
2023-01-12T01:29:35.123Z,99676.16
2023-01-12T01:30:37.468Z,99676.81
2023-01-12T01:31:39.735Z,99670.81
2023-01-12T01:32:42.299Z,99671.78
2023-01-12T01:33:44.710Z,99676.94
2023-01-12T01:34:47.769Z,99674.19
2023-01-12T01:35:49.931Z,99682.03
2023-01-12T01:36:52.159Z,99690.88
2023-01-12T01:37:54.403Z,99686.31
2023-01-12T01:38:56.633Z,99684.50
2023-01-12T01:39:58.838Z,99689.69
2023-01-12T01:41:01.711Z,99680.97
2023-01-12T01:42:03.942Z,99680.28
2023-01-12T01:43:06.228Z,99676.16
2023-01-12T01:44:29.943Z,99683.03
2023-01-12T01:59:36.354Z,99660.94
2023-01-12T02:02:08.652Z,99663.47
2023-01-12T02:03:13.421Z,99668.63
2023-01-12T02:04:15.915Z,99661.75
2023-01-12T02:05:20.967Z,99665.31
2023-01-12T02:06:26.073Z,99663.47
2023-01-12T02:07:28.307Z,99654.75
2023-01-12T02:08:48.143Z,99656.50
2023-01-12T02:09:50.634Z,99660.78
2023-01-12T02:10:54.957Z,99659.00
2023-01-12T02:12:16.166Z,99655.47
2023-01-12T02:13:37.271Z,99652.06
2023-01-12T02:14:59.756Z,99644.16
2023-01-12T02:16:20.649Z,99639.59
2023-01-12T02:17:31.787Z,99637.97
2023-01-12T02:18:49.636Z,99637.88
2023-01-12T02:20:37.775Z,99633.56
2023-01-12T02:22:21.704Z,99641.22
2023-01-12T02:23:26.573Z,99638.56
2023-01-12T02:24:59.215Z,99634.13
2023-01-12T02:26:33.375Z,99627.53
2023-01-12T02:27:50.457Z,99630.06
2023-01-12T02:29:29.612Z,99621.13
2023-01-12T02:30:53.610Z,99618.38
2023-01-12T02:32:18.474Z,99617.28
2023-01-12T02:33:48.920Z,99625.41
2023-01-12T02:34:57.456Z,99619.03
2023-01-12T02:36:33.448Z,99609.81
2023-01-12T02:38:13.167Z,99607.25
2023-01-12T02:39:29.371Z,99609.09
2023-01-12T02:41:05.205Z,99609.91
2023-01-12T02:42:42.218Z,99618.72
2023-01-12T02:43:44.982Z,99612.78
2023-01-12T02:44:56.654Z,99610.09
2023-01-12T02:46:28.656Z,99592.72
2023-01-12T02:47:48.743Z,99604.03
2023-01-12T02:49:04.745Z,99597.16
2023-01-12T02:50:12.756Z,99591.94
2023-01-12T02:51:22.618Z,99592.59
2023-01-12T02:52:28.702Z,99590.19
2023-01-12T02:53:38.496Z,99583.38
2023-01-12T02:54:47.490Z,99595.59
2023-01-12T02:55:51.088Z,99599.44
2023-01-12T02:56:56.167Z,99593.34
2023-01-12T02:57:59.896Z,99603.88
2023-01-12T02:59:11.025Z,99613.47
2023-01-12T03:00:17.231Z,99604.63
2023-01-12T03:01:20.733Z,99607.06
2023-01-12T03:02:25.496Z,99601.81
2023-01-12T03:03:27.787Z,99606.91
2023-01-12T03:04:32.473Z,99596.56
2023-01-12T03:05:34.651Z,99593.09
2023-01-12T03:06:48.537Z,99595.59
2023-01-12T03:07:58.851Z,99601.75
2023-01-12T03:09:01.083Z,99600.09
2023-01-12T03:10:34.384Z,99593.16
2023-01-12T03:11:40.512Z,99599.31
2023-01-12T03:12:44.972Z,99597.59
2023-01-12T03:13:59.910Z,99587.13
2023-01-12T03:15:06.533Z,99586.31
2023-01-12T03:16:11.980Z,99577.75
2023-01-12T03:17:25.902Z,99571.66
2023-01-12T03:18:37.095Z,99581.31
2023-01-12T03:19:41.711Z,99590.16
2023-01-12T03:20:52.211Z,99580.47
2023-01-12T03:22:09.676Z,99584.13
2023-01-12T03:23:18.196Z,99574.38
2023-01-12T03:24:26.531Z,99580.47
2023-01-12T03:25:33.387Z,99571.53
2023-01-12T03:26:39.097Z,99569.16
2023-01-12T03:27:44.652Z,99579.91
2023-01-12T03:28:53.865Z,99576.59
2023-01-12T03:30:01.823Z,99579.88
2023-01-12T03:31:09.019Z,99579.84
2023-01-12T03:32:11.540Z,99572.31
2023-01-12T03:33:13.788Z,99586.88
2023-01-12T03:34:16.012Z,99571.03
2023-01-12T03:35:24.423Z,99573.72
2023-01-12T03:36:45.387Z,99580.69
2023-01-12T03:37:58.007Z,99571.13
2023-01-12T03:39:26.030Z,99586.81
2023-01-12T03:40:39.375Z,99585.75
2023-01-12T03:41:56.390Z,99574.38
2023-01-12T03:43:09.214Z,99575.25
2023-01-12T03:44:28.680Z,99572.47
2023-01-12T03:45:39.740Z,99578.59
2023-01-12T03:46:59.064Z,99571.38
2023-01-12T03:48:24.488Z,99572.34
2023-01-12T03:49:33.237Z,99572.16
2023-01-12T03:50:42.607Z,99566.75
2023-01-12T03:51:48.583Z,99571.44
2023-01-12T03:52:54.795Z,99565.41
2023-01-12T03:53:58.506Z,99568.66
2023-01-12T03:55:03.429Z,99566.75
2023-01-12T03:56:09.112Z,99570.28
2023-01-12T03:57:13.130Z,99570.91
2023-01-12T03:58:17.254Z,99561.16
2023-01-12T03:59:19.792Z,99557.59
2023-01-12T04:00:24.349Z,99554.44
2023-01-12T04:01:26.998Z,99547.47
2023-01-12T04:02:29.324Z,99545.75
2023-01-12T04:03:31.560Z,99546.66
2023-01-12T04:04:33.916Z,99550.22
2023-01-12T04:05:36.833Z,99544.13
2023-01-12T04:06:39.034Z,99551.97
2023-01-12T04:07:41.281Z,99550.19
2023-01-12T04:08:43.515Z,99549.19
2023-01-12T04:09:45.691Z,99547.47
2023-01-12T04:10:48.166Z,99545.66
2023-01-12T04:12:08.829Z,99539.66
2023-01-12T04:13:11.345Z,99537.81
2023-01-12T04:14:13.524Z,99536.91
2023-01-12T04:15:15.740Z,99540.25
2023-01-12T04:16:18.394Z,99530.66
2023-01-12T04:17:25.019Z,99539.50
2023-01-12T04:18:27.216Z,99547.16
2023-01-12T04:19:29.487Z,99542.03
2023-01-12T04:20:31.734Z,99542.75
2023-01-12T04:21:52.272Z,99544.47
2023-01-12T04:22:54.491Z,99538.13
2023-01-12T04:23:56.674Z,99534.66
2023-01-12T04:24:58.907Z,99531.28
2023-01-12T04:26:02.484Z,99531.06
2023-01-12T04:27:04.771Z,99540.72
2023-01-12T04:28:07.160Z,99528.63
2023-01-12T04:29:09.418Z,99540.91
2023-01-12T04:30:12.237Z,99528.56
2023-01-12T04:31:14.650Z,99532.06
2023-01-12T04:32:16.847Z,99534.94
2023-01-12T04:33:19.174Z,99532.97
2023-01-12T04:34:21.464Z,99535.63
2023-01-12T04:35:24.837Z,99528.41
2023-01-12T04:36:27.035Z,99546.03
2023-01-12T04:37:31.762Z,99544.28
2023-01-12T04:38:33.966Z,99545.31
2023-01-12T04:39:36.205Z,99545.00
2023-01-12T04:40:38.429Z,99540.84
2023-01-12T04:41:40.800Z,99540.09
2023-01-12T04:43:08.692Z,99536.56
2023-01-12T04:44:11.174Z,99544.31
2023-01-12T04:45:13.603Z,99537.38
2023-01-12T04:46:15.812Z,99553.88
2023-01-12T04:47:18.148Z,99548.72
2023-01-12T04:48:20.554Z,99556.38
2023-01-12T04:49:22.795Z,99551.34
2023-01-12T04:50:25.141Z,99542.38
2023-01-12T04:51:27.384Z,99551.94
2023-01-12T04:52:29.705Z,99548.44
2023-01-12T04:53:31.992Z,99554.53
2023-01-12T04:54:34.206Z,99541.28
2023-01-12T04:55:38.154Z,99536.19
2023-01-12T04:56:40.635Z,99550.84
2023-01-12T04:57:43.009Z,99550.19
2023-01-12T04:58:45.527Z,99545.06
2023-01-12T04:59:53.708Z,99547.72
2023-01-12T05:00:56.001Z,99545.97
2023-01-12T05:01:58.214Z,99549.28
2023-01-12T05:03:03.576Z,99541.63
2023-01-12T05:04:07.814Z,99535.22
2023-01-12T05:05:10.485Z,99546.66
2023-01-12T05:06:12.793Z,99544.25
2023-01-12T05:07:17.375Z,99545.94
2023-01-12T05:08:37.941Z,99544.28
2023-01-12T05:09:59.012Z,99553.66
2023-01-12T05:11:01.857Z,99543.38
2023-01-12T05:12:04.527Z,99551.94
2023-01-12T05:13:06.839Z,99544.38
2023-01-12T05:14:09.090Z,99544.16
2023-01-12T05:15:11.525Z,99538.88
2023-01-12T05:16:16.690Z,99540.47
2023-01-12T05:17:19.203Z,99537.84
2023-01-12T05:18:22.306Z,99532.91
2023-01-12T05:19:24.561Z,99534.75
2023-01-12T05:20:26.793Z,99535.34
2023-01-12T05:21:30.119Z,99517.16
2023-01-12T05:22:32.344Z,99535.63
2023-01-12T05:23:34.559Z,99526.78
2023-01-12T05:24:36.695Z,99525.34
2023-01-12T05:25:38.889Z,99521.06
2023-01-12T05:26:41.107Z,99514.03
2023-01-12T05:27:43.322Z,99519.16
2023-01-12T05:28:48.707Z,99511.34
2023-01-12T05:29:52.686Z,99520.13
2023-01-12T05:30:55.656Z,99502.66
2023-01-12T05:31:58.026Z,99517.31
2023-01-12T05:33:00.377Z,99512.50
2023-01-12T05:34:02.843Z,99500.16
2023-01-12T05:35:06.359Z,99509.81
2023-01-12T05:36:12.042Z,99506.50
2023-01-12T05:37:14.246Z,99508.41
2023-01-12T05:38:16.465Z,99508.34
2023-01-12T05:39:19.631Z,99495.34
2023-01-12T05:40:22.028Z,99501.31
2023-01-12T05:41:24.249Z,99489.06
2023-01-12T05:42:45.306Z,99507.28
2023-01-12T05:43:50.111Z,99493.16
2023-01-12T05:44:52.431Z,99482.88
2023-01-12T05:45:54.705Z,99493.03
2023-01-12T05:46:56.971Z,99490.56
2023-01-12T05:48:01.813Z,99488.19
2023-01-12T05:49:04.037Z,99476.19
2023-01-12T05:50:06.625Z,99488.56
2023-01-12T05:51:10.314Z,99486.94
2023-01-12T05:52:12.538Z,99477.13
2023-01-12T05:53:14.868Z,99485.03
2023-01-12T05:54:17.134Z,99478.91
2023-01-12T05:55:19.690Z,99482.56
2023-01-12T05:56:27.702Z,99485.13
2023-01-12T05:57:30.920Z,99475.44
2023-01-12T05:58:33.126Z,99469.44
2023-01-12T05:59:35.415Z,99477.13
2023-01-12T06:00:37.829Z,99475.41
2023-01-12T06:01:41.129Z,99477.97
2023-01-12T06:02:43.450Z,99478.09
2023-01-12T06:03:52.229Z,99475.25
2023-01-12T06:04:54.540Z,99470.34
2023-01-12T06:05:58.314Z,99467.66
2023-01-12T06:07:00.575Z,99463.31
2023-01-12T06:08:02.910Z,99454.59
2023-01-12T06:09:05.184Z,99457.84
2023-01-12T06:10:10.785Z,99457.13
2023-01-12T06:11:33.125Z,99464.91
2023-01-12T06:12:54.539Z,99465.28
2023-01-12T06:13:57.179Z,99456.72
2023-01-12T06:14:59.612Z,99452.66
2023-01-12T06:16:09.118Z,99447.47
2023-01-12T06:17:11.537Z,99448.38
2023-01-12T06:18:13.755Z,99449.09
2023-01-12T06:19:15.945Z,99447.38
2023-01-12T06:20:18.203Z,99436.13
2023-01-12T06:21:20.411Z,99436.88
2023-01-12T06:22:22.697Z,99443.81
2023-01-12T06:23:34.904Z,99433.28
2023-01-12T06:24:38.100Z,99430.81
2023-01-12T06:25:40.358Z,99421.09
2023-01-12T06:26:45.004Z,99438.16
2023-01-12T06:27:47.260Z,99433.94
2023-01-12T06:28:49.559Z,99438.34
2023-01-12T06:29:51.836Z,99430.47
2023-01-12T06:30:58.811Z,99432.22
2023-01-12T06:32:01.086Z,99437.38
2023-01-12T06:33:03.315Z,99440.81
2023-01-12T06:34:07.846Z,99433.84
2023-01-12T06:35:18.564Z,99442.44
2023-01-12T06:36:21.611Z,99444.19
2023-01-12T06:37:26.879Z,99437.81
2023-01-12T06:38:31.647Z,99448.59
2023-01-12T06:39:34.662Z,99437.94
2023-01-12T06:40:36.847Z,99446.81
2023-01-12T06:41:57.890Z,99441.41
2023-01-12T06:43:00.121Z,99446.72
2023-01-12T06:44:02.364Z,99448.47
2023-01-12T06:45:05.339Z,99444.03
2023-01-12T06:46:07.552Z,99435.34
2023-01-12T06:47:09.824Z,99442.28
2023-01-12T06:48:12.216Z,99446.59
2023-01-12T06:49:16.515Z,99440.41
2023-01-12T06:50:18.826Z,99441.22
2023-01-12T06:51:20.994Z,99443.78
2023-01-12T06:52:25.738Z,99434.34
2023-01-12T06:53:27.932Z,99436.78
2023-01-12T06:54:30.905Z,99440.28
2023-01-12T06:55:33.465Z,99433.28
2023-01-12T06:56:35.671Z,99439.56
2023-01-12T06:57:37.891Z,99435.91
2023-01-12T06:58:43.164Z,99446.41
2023-01-12T06:59:45.704Z,99443.78
2023-01-12T07:00:48.036Z,99444.50
2023-01-12T07:01:50.414Z,99449.72
2023-01-12T07:02:52.855Z,99442.88
2023-01-12T07:03:55.101Z,99446.41
2023-01-12T07:04:57.280Z,99442.88
2023-01-12T07:06:00.779Z,99453.44
2023-01-12T07:07:04.172Z,99452.44
2023-01-12T07:08:06.867Z,99454.00
2023-01-12T07:09:09.285Z,99441.84
2023-01-12T07:10:12.308Z,99447.91
2023-01-12T07:11:16.667Z,99441.78
2023-01-12T07:12:18.814Z,99431.47
2023-01-12T07:13:21.898Z,99437.41
2023-01-12T07:14:24.261Z,99426.13
2023-01-12T07:15:26.975Z,99410.22
2023-01-12T07:16:29.641Z,99418.88
2023-01-12T07:17:31.957Z,99422.56
2023-01-12T07:18:34.275Z,99420.72
2023-01-12T07:19:36.562Z,99412.88
2023-01-12T07:20:38.773Z,99412.00
2023-01-12T07:21:41.146Z,99416.50
2023-01-12T07:22:43.397Z,99428.59
2023-01-12T07:23:45.708Z,99416.31
2023-01-12T07:24:48.445Z,99415.31
2023-01-12T07:25:50.722Z,99425.66
2023-01-12T07:26:53.818Z,99410.03
2023-01-12T07:27:58.111Z,99422.84
2023-01-12T07:29:00.375Z,99418.41
2023-01-12T07:30:03.303Z,99413.47
2023-01-12T07:31:06.755Z,99423.88
2023-01-12T07:32:09.060Z,99412.47
2023-01-12T07:33:13.818Z,99411.72
2023-01-12T07:34:16.532Z,99414.41
2023-01-12T07:35:19.184Z,99414.31
2023-01-12T07:36:53.791Z,99407.38
2023-01-12T07:37:55.992Z,99414.34
2023-01-12T07:38:58.326Z,99403.75
2023-01-12T07:40:00.613Z,99413.22
2023-01-12T07:41:03.130Z,99413.47
2023-01-12T07:42:37.928Z,99411.28
2023-01-12T07:43:40.147Z,99412.84
2023-01-12T07:44:42.405Z,99414.63
2023-01-12T07:45:47.545Z,99416.56
2023-01-12T07:46:49.693Z,99413.72
2023-01-12T07:47:55.358Z,99420.78
2023-01-12T07:48:57.551Z,99414.88
2023-01-12T07:50:00.309Z,99423.38
2023-01-12T07:51:02.586Z,99417.22
2023-01-12T07:52:04.959Z,99426.84
2023-01-12T07:53:07.194Z,99427.59
2023-01-12T07:54:09.866Z,99417.00
2023-01-12T07:55:12.100Z,99435.50
2023-01-12T07:56:16.045Z,99429.56
2023-01-12T07:57:18.817Z,99438.78
2023-01-12T07:58:21.021Z,99431.44
2023-01-12T07:59:23.252Z,99432.44
2023-01-12T08:00:27.403Z,99430.84
2023-01-12T08:01:32.343Z,99429.22
2023-01-12T08:02:34.632Z,99435.22
2023-01-12T08:03:38.044Z,99449.28
2023-01-12T08:04:40.214Z,99441.56
2023-01-12T08:05:42.543Z,99437.16
2023-01-12T08:06:44.909Z,99448.59
2023-01-12T08:07:47.194Z,99441.56
2023-01-12T08:08:49.725Z,99443.41
2023-01-12T08:09:52.356Z,99445.78
2023-01-12T08:10:54.586Z,99445.78
2023-01-12T08:11:56.887Z,99454.59
2023-01-12T08:12:59.119Z,99447.56
2023-01-12T08:14:02.069Z,99449.28
2023-01-12T08:15:04.744Z,99453.34
2023-01-12T08:16:16.127Z,99444.41
2023-01-12T08:17:22.221Z,99453.03
2023-01-12T08:18:34.299Z,99448.97
2023-01-12T08:20:01.461Z,99444.00
2023-01-12T08:21:10.116Z,99443.84
2023-01-12T08:22:16.429Z,99440.41
2023-01-12T08:23:32.277Z,99440.25
2023-01-12T08:24:41.260Z,99440.31
2023-01-12T08:25:49.094Z,99439.53
2023-01-12T08:26:56.388Z,99420.31
2023-01-12T08:28:05.162Z,99435.06
2023-01-12T08:29:15.839Z,99435.81
2023-01-12T08:30:21.572Z,99421.25
2023-01-12T08:31:26.163Z,99435.16
2023-01-12T08:32:29.299Z,99432.31
2023-01-12T08:33:31.501Z,99412.31
2023-01-12T08:34:35.388Z,99428.72
2023-01-12T08:35:37.722Z,99433.13
2023-01-12T08:36:44.140Z,99422.72
2023-01-12T08:37:46.873Z,99421.66
2023-01-12T08:38:49.254Z,99435.63
2023-01-12T08:39:52.517Z,99426.09
2023-01-12T08:41:13.003Z,99429.38
2023-01-12T08:42:15.351Z,99433.72
2023-01-12T08:43:37.723Z,99428.63
2023-01-12T08:44:40.099Z,99437.38
2023-01-12T08:45:42.322Z,99442.56
2023-01-12T08:46:51.787Z,99436.25
2023-01-12T08:47:54.083Z,99437.03
2023-01-12T08:48:56.386Z,99438.97
2023-01-12T08:50:00.204Z,99430.19
2023-01-12T08:51:06.199Z,99426.66
2023-01-12T08:52:08.483Z,99431.13
2023-01-12T08:53:10.768Z,99439.06
2023-01-12T08:54:15.627Z,99440.72
2023-01-12T08:55:17.833Z,99449.59
2023-01-12T08:56:20.139Z,99438.97
2023-01-12T08:57:22.414Z,99438.94
2023-01-12T08:58:24.613Z,99441.72
2023-01-12T08:59:26.963Z,99438.28
2023-01-12T09:00:29.266Z,99450.50
2023-01-12T09:01:31.804Z,99442.09
2023-01-12T09:02:34.166Z,99436.06
2023-01-12T09:03:37.733Z,99445.69
2023-01-12T09:04:40.438Z,99445.09
2023-01-12T09:05:44.130Z,99443.16
2023-01-12T09:06:48.295Z,99444.06
2023-01-12T09:07:50.912Z,99441.59
2023-01-12T09:08:55.321Z,99453.69
2023-01-12T09:09:57.519Z,99445.78
2023-01-12T09:11:06.588Z,99456.25
2023-01-12T09:12:08.744Z,99446.50
2023-01-12T09:13:15.595Z,99429.09
2023-01-12T09:14:18.218Z,99433.44
2023-01-12T09:15:20.445Z,99437.91
2023-01-12T09:16:22.874Z,99445.56
2023-01-12T09:17:26.125Z,99450.88
2023-01-12T09:18:28.407Z,99457.81
2023-01-12T09:19:30.657Z,99448.09
2023-01-12T09:20:34.142Z,99443.75
2023-01-12T09:21:38.355Z,99463.00
2023-01-12T09:22:40.623Z,99449.03
2023-01-12T09:23:43.082Z,99453.06
2023-01-12T09:24:46.003Z,99445.47
2023-01-12T09:25:48.291Z,99447.88
2023-01-12T09:26:50.465Z,99445.25
2023-01-12T09:27:52.626Z,99453.97
2023-01-12T09:28:56.915Z,99448.94
2023-01-12T09:29:59.073Z,99442.78
2023-01-12T09:31:10.273Z,99445.47
2023-01-12T09:32:12.611Z,99450.50
2023-01-12T09:33:14.951Z,99439.31
2023-01-12T09:34:17.170Z,99433.25
2023-01-12T09:35:19.872Z,99431.50
2023-01-12T09:36:25.089Z,99433.22
2023-01-12T09:37:28.301Z,99438.06
2023-01-12T09:38:30.906Z,99435.59
2023-01-12T09:39:33.127Z,99438.06
2023-01-12T09:40:35.600Z,99447.97
2023-01-12T09:41:59.230Z,99441.56
2023-01-12T09:43:19.845Z,99454.88
2023-01-12T09:44:56.899Z,99453.16
2023-01-12T09:46:17.942Z,99451.47
2023-01-12T09:47:47.935Z,99437.38
2023-01-12T09:48:50.221Z,99437.44
2023-01-12T09:50:11.020Z,99439.00
2023-01-12T09:51:25.478Z,99428.34
2023-01-12T09:52:34.244Z,99424.00
2023-01-12T09:53:39.014Z,99426.69
2023-01-12T09:54:41.917Z,99411.75
2023-01-12T09:55:57.652Z,99429.13
2023-01-12T09:57:44.619Z,99418.56
2023-01-12T09:59:18.489Z,99420.16
2023-01-12T10:00:21.611Z,99426.41
2023-01-12T10:01:29.853Z,99424.47
2023-01-12T10:02:40.097Z,99423.75
2023-01-12T10:03:43.147Z,99408.03
2023-01-12T10:04:49.313Z,99417.78
2023-01-12T10:05:54.664Z,99415.25
2023-01-12T10:06:57.301Z,99420.25
2023-01-12T10:07:59.587Z,99400.88
2023-01-12T10:09:06.996Z,99411.94
2023-01-12T10:10:14.569Z,99417.44
2023-01-12T10:11:44.267Z,99400.56
2023-01-12T10:12:53.141Z,99406.75
2023-01-12T10:14:31.087Z,99421.47
2023-01-12T10:15:33.297Z,99409.28
2023-01-12T10:16:56.788Z,99405.06
2023-01-12T10:18:10.079Z,99392.91
2023-01-12T10:19:41.153Z,99405.69
2023-01-12T10:20:45.068Z,99402.59
2023-01-12T10:21:47.589Z,99402.84
2023-01-12T10:22:58.356Z,99401.72
2023-01-12T10:24:00.571Z,99398.44
2023-01-12T10:25:24.389Z,99413.38
2023-01-12T10:26:33.320Z,99406.44
2023-01-12T10:27:41.183Z,99402.94
2023-01-12T10:28:46.758Z,99414.81
2023-01-12T10:29:48.920Z,99404.56
2023-01-12T10:30:54.087Z,99409.06
2023-01-12T10:31:57.977Z,99405.41
2023-01-12T10:33:12.608Z,99412.25
2023-01-12T10:34:14.819Z,99399.03
2023-01-12T10:35:20.463Z,99388.47
2023-01-12T10:36:25.765Z,99394.41
2023-01-12T10:37:27.962Z,99386.97
2023-01-12T10:38:57.515Z,99393.34
2023-01-12T10:39:59.739Z,99388.91
2023-01-12T10:41:09.826Z,99404.75
2023-01-12T10:42:43.596Z,99394.97
2023-01-12T10:44:04.004Z,99386.66
2023-01-12T10:45:17.004Z,99382.06
2023-01-12T10:46:22.362Z,99392.97
2023-01-12T10:47:24.610Z,99395.19
2023-01-12T10:48:26.808Z,99382.13
2023-01-12T10:49:29.311Z,99408.16
2023-01-12T10:50:37.339Z,99394.53
2023-01-12T10:51:54.225Z,99397.09
2023-01-12T10:53:06.189Z,99389.94
2023-01-12T10:54:17.691Z,99389.44
2023-01-12T10:55:22.096Z,99373.53
2023-01-12T10:56:35.129Z,99389.47
2023-01-12T10:57:42.598Z,99380.13
2023-01-12T10:58:52.213Z,99378.16
2023-01-12T10:59:59.861Z,99386.03
2023-01-12T11:01:02.545Z,99382.94
2023-01-12T11:02:15.051Z,99393.75
2023-01-12T11:03:29.106Z,99386.81
2023-01-12T11:04:38.249Z,99398.41
2023-01-12T11:05:40.488Z,99385.13
2023-01-12T11:06:45.242Z,99382.22
2023-01-12T11:07:50.657Z,99379.31
2023-01-12T11:08:53.766Z,99392.88
2023-01-12T11:10:19.409Z,99392.75
2023-01-12T11:11:30.209Z,99392.78
2023-01-12T11:12:38.715Z,99383.13
2023-01-12T11:13:40.913Z,99382.94
2023-01-12T11:14:43.451Z,99368.59
2023-01-12T11:16:09.414Z,99387.44
2023-01-12T11:17:14.323Z,99362.63
2023-01-12T11:18:40.551Z,99379.91
2023-01-12T11:19:45.623Z,99359.75
2023-01-12T11:20:54.125Z,99378.72
2023-01-12T11:22:03.233Z,99364.22
2023-01-12T11:23:31.908Z,99372.22
2023-01-12T11:24:47.416Z,99376.38
2023-01-12T11:25:52.506Z,99370.22
2023-01-12T11:27:06.990Z,99355.53
2023-01-12T11:28:36.653Z,99362.88
2023-01-12T11:29:54.518Z,99353.22
2023-01-12T11:31:21.252Z,99368.81
2023-01-12T11:32:44.160Z,99353.72
2023-01-12T11:33:55.304Z,99354.66
2023-01-12T11:35:28.501Z,99354.47
2023-01-12T11:36:35.690Z,99364.25
2023-01-12T11:37:40.505Z,99362.63
2023-01-12T11:38:46.462Z,99372.31
2023-01-12T11:39:52.875Z,99373.22
2023-01-12T11:40:58.545Z,99363.72
2023-01-12T11:42:21.180Z,99363.69
2023-01-12T11:43:41.789Z,99353.47
2023-01-12T11:45:11.451Z,99350.78
2023-01-12T11:46:27.707Z,99373.59
2023-01-12T11:47:42.489Z,99351.66
2023-01-12T11:48:59.671Z,99347.88
2023-01-12T11:50:16.018Z,99346.25
2023-01-12T11:51:18.375Z,99346.94
2023-01-12T11:52:20.681Z,99333.69
2023-01-12T11:53:25.255Z,99337.28
2023-01-12T11:54:29.860Z,99331.97
2023-01-12T11:55:55.976Z,99331.50
2023-01-12T11:57:10.048Z,99327.81
2023-01-12T11:58:31.150Z,99332.09
2023-01-12T11:59:56.341Z,99322.97
2023-01-12T12:01:08.344Z,99323.19
2023-01-12T12:02:28.989Z,99333.94
2023-01-12T12:03:47.617Z,99331.84
2023-01-12T12:04:52.470Z,99322.31
2023-01-12T12:06:22.140Z,99300.72
2023-01-12T12:07:26.989Z,99302.53
2023-01-12T12:09:00.196Z,99318.28
2023-01-12T12:10:22.270Z,99290.72
2023-01-12T12:11:55.118Z,99303.63
2023-01-12T12:13:14.690Z,99296.09
2023-01-12T12:14:41.057Z,99297.81
2023-01-12T12:16:08.401Z,99298.97
2023-01-12T12:17:20.633Z,99283.38
2023-01-12T12:18:43.899Z,99302.44
2023-01-12T12:19:54.821Z,99307.50
2023-01-12T12:21:23.695Z,99291.47
2023-01-12T12:22:41.160Z,99295.97
2023-01-12T12:24:16.561Z,99286.38
2023-01-12T12:25:30.170Z,99303.13
2023-01-12T12:26:43.354Z,99293.19
2023-01-12T12:28:04.085Z,99291.63
2023-01-12T12:29:10.717Z,99299.56
2023-01-12T12:30:48.160Z,99299.53
2023-01-12T12:32:36.595Z,99288.16
2023-01-12T12:33:57.935Z,99298.94
2023-01-12T12:35:20.840Z,99290.97
2023-01-12T12:36:22.892Z,99296.97
2023-01-12T12:37:57.851Z,99278.91
2023-01-12T12:39:18.621Z,99287.03
2023-01-12T12:41:01.137Z,99306.16
2023-01-12T12:42:54.932Z,99288.41
2023-01-12T12:44:59.135Z,99293.47
2023-01-12T12:46:20.459Z,99313.91
2023-01-12T12:47:47.249Z,99300.81
2023-01-12T12:49:00.136Z,99299.13
2023-01-12T12:50:13.128Z,99298.47
2023-01-12T12:51:16.325Z,99294.16
2023-01-12T12:52:19.320Z,99295.38
2023-01-12T12:53:33.188Z,99290.25
2023-01-12T12:54:35.636Z,99284.22
2023-01-12T12:55:38.086Z,99277.06
2023-01-12T12:56:40.828Z,99281.78
2023-01-12T12:58:04.481Z,99281.06
2023-01-12T12:59:07.232Z,99281.06
2023-01-12T13:00:32.932Z,99286.84
2023-01-12T13:01:39.400Z,99273.44
2023-01-12T13:02:55.556Z,99277.13
2023-01-12T13:04:00.288Z,99280.84
2023-01-12T13:05:05.363Z,99270.66
2023-01-12T13:06:26.471Z,99262.72
2023-01-12T13:07:29.310Z,99276.28
2023-01-12T13:08:34.688Z,99259.00
2023-01-12T13:09:38.876Z,99257.03
2023-01-12T13:10:52.586Z,99267.00
2023-01-12T13:12:19.036Z,99264.78
2023-01-12T13:13:28.940Z,99250.59
2023-01-12T13:14:41.264Z,99258.41
2023-01-12T13:15:43.624Z,99255.16
2023-01-12T13:16:47.735Z,99268.06
2023-01-12T13:17:52.816Z,99263.69
2023-01-12T13:18:55.006Z,99271.63
2023-01-12T13:20:02.119Z,99261.38
2023-01-12T13:21:26.493Z,99253.31
2023-01-12T13:22:42.508Z,99255.13
2023-01-12T13:23:50.489Z,99266.63
2023-01-12T13:24:53.987Z,99260.66
2023-01-12T13:25:57.481Z,99245.00
2023-01-12T13:27:01.780Z,99262.63
2023-01-12T13:28:03.976Z,99247.00
2023-01-12T13:29:37.155Z,99256.19
2023-01-12T13:31:00.239Z,99229.97
2023-01-12T13:32:35.811Z,99247.63
2023-01-12T13:33:38.391Z,99241.69
2023-01-12T13:34:46.255Z,99249.88
2023-01-12T13:35:48.456Z,99256.00
2023-01-12T13:37:19.238Z,99255.06
2023-01-12T13:38:39.272Z,99256.75
2023-01-12T13:39:55.654Z,99258.16
2023-01-12T13:41:14.586Z,99263.41
2023-01-12T13:42:39.802Z,99252.75
2023-01-12T13:43:56.162Z,99259.97